Time;durP1;ratioP1;P1;durP2;ratioP2;P2;SDS_P1;SDS_P2;PMS_P1;PMS_P2;Temp;Humidity;BMP_temperature;BMP_pressure;BME280_temperature;BME280_humidity;BME280_pressure;Samples;Min_cycle;Max_cycle;Signal;HPM_P1;HPM_P2
2023/04/08 00:00:43;;;;;;;37.03;13.82;;;;;;;7.71;100.00;102147.56;5050228;28;20481;-75
2023/04/08 00:03:09;;;;;;;29.50;15.23;;;;;;;7.68;100.00;102146.03;5048811;28;20115;-75
2023/04/08 00:05:34;;;;;;;28.23;14.43;;;;;;;7.72;100.00;102157.19;5050162;28;20029;-75
2023/04/08 00:07:59;;;;;;;30.88;14.80;;;;;;;7.71;100.00;102151.06;5049759;28;20396;-75
2023/04/08 00:10:25;;;;;;;28.88;13.98;;;;;;;7.71;100.00;102156.38;5049967;28;20025;-75
2023/04/08 00:12:51;;;;;;;33.10;16.05;;;;;;;7.69;100.00;102156.50;5049994;28;20028;-75
2023/04/08 00:15:16;;;;;;;31.85;14.15;;;;;;;7.70;100.00;102167.97;5049722;28;20029;-75
2023/04/08 00:17:42;;;;;;;33.22;15.65;;;;;;;7.66;100.00;102150.66;5048496;28;20063;-75
2023/04/08 00:20:08;;;;;;;31.80;14.57;;;;;;;7.64;100.00;102160.56;5050206;28;20520;-75
2023/04/08 00:22:34;;;;;;;30.70;15.60;;;;;;;7.60;100.00;102148.59;5048485;28;20151;-75
2023/04/08 00:25:00;;;;;;;34.67;16.33;;;;;;;7.62;100.00;102151.91;5049828;28;20021;-75
2023/04/08 00:27:26;;;;;;;34.65;13.60;;;;;;;7.64;100.00;102149.97;5049704;28;20438;-75
2023/04/08 00:29:51;;;;;;;35.55;17.38;;;;;;;7.62;100.00;102150.13;5049824;28;20682;-75
2023/04/08 00:32:16;;;;;;;45.13;18.75;;;;;;;7.62;100.00;102150.13;5049560;28;20044;-75
2023/04/08 00:34:42;;;;;;;34.53;16.50;;;;;;;7.63;100.00;102153.59;5048275;28;20036;-75
2023/04/08 00:37:08;;;;;;;32.03;14.90;;;;;;;7.63;100.00;102157.09;5049477;28;20213;-75
2023/04/08 00:39:33;;;;;;;30.92;14.10;;;;;;;7.59;100.00;102152.22;5049450;28;20028;-75
2023/04/08 00:42:00;;;;;;;30.80;15.73;;;;;;;7.58;100.00;102153.22;5048887;28;20437;-75
2023/04/08 00:44:26;;;;;;;31.30;15.82;;;;;;;7.54;100.00;102155.28;5049618;28;20059;-75
2023/04/08 00:46:51;;;;;;;29.20;15.07;;;;;;;7.59;100.00;102163.66;5049854;28;20076;-75
2023/04/08 00:49:17;;;;;;;30.98;15.30;;;;;;;7.57;100.00;102157.69;5049396;28;20037;-75
2023/04/08 00:51:42;;;;;;;39.00;16.60;;;;;;;7.61;100.00;102161.72;5049445;28;20423;-75
2023/04/08 00:54:08;;;;;;;31.77;15.98;;;;;;;7.61;100.00;102167.00;5049259;28;20036;-75
2023/04/08 00:56:33;;;;;;;29.15;15.13;;;;;;;7.63;100.00;102158.91;5048076;28;20060;-75
2023/04/08 00:59:00;;;;;;;34.47;16.83;;;;;;;7.59;100.00;102157.53;5049271;28;20033;-75
2023/04/08 01:01:56;;;;;;;32.35;16.15;;;;;;;7.64;100.00;102158.75;5049440;28;20117;-75
2023/04/08 01:04:32;;;;;;;32.05;16.67;;;;;;;7.67;100.00;102169.09;5049212;28;20189;-75
2023/04/08 01:07:12;;;;;;;31.17;14.77;;;;;;;7.69;100.00;102169.78;5049348;28;20463;-75
2023/04/08 01:09:40;;;;;;;35.20;16.77;;;;;;;7.70;100.00;102167.97;5048808;28;20025;-75
2023/04/08 01:12:08;;;;;;;30.80;14.40;;;;;;;7.69;100.00;102171.59;5049116;28;20035;-75
2023/04/08 01:14:39;;;;;;;37.55;16.10;;;;;;;7.64;100.00;102160.56;5049038;28;20021;-75
2023/04/08 01:17:05;;;;;;;32.05;14.90;;;;;;;7.66;100.00;102164.75;5049097;28;20039;-75
2023/04/08 01:19:34;;;;;;;31.48;15.43;;;;;;;7.62;100.00;102158.09;5047661;28;20064;-75
2023/04/08 01:22:09;;;;;;;33.60;14.30;;;;;;;7.68;100.00;102167.28;5049032;28;20533;-75
2023/04/08 01:24:40;;;;;;;30.27;14.80;;;;;;;7.69;100.00;102163.63;5049214;28;20016;-75
2023/04/08 01:27:08;;;;;;;30.55;14.60;;;;;;;7.66;100.00;102158.63;5049135;28;20021;-75
2023/04/08 01:29:35;;;;;;;33.28;15.43;;;;;;;7.67;100.00;102166.44;5047950;28;20120;-75
2023/04/08 01:32:02;;;;;;;33.53;17.27;;;;;;;7.69;100.00;102169.78;5049012;28;20108;-75
2023/04/08 01:34:29;;;;;;;35.17;18.85;;;;;;;7.68;100.00;102164.63;5048887;28;20132;-75
2023/04/08 01:36:56;;;;;;;36.47;15.10;;;;;;;7.71;100.00;102174.97;5047763;28;20115;-75
2023/04/08 01:39:22;;;;;;;32.00;16.80;;;;;;;7.70;100.00;102170.59;5049051;28;20112;-75
2023/04/08 01:41:52;;;;;;;33.28;17.15;;;;;;;7.68;100.00;102181.41;5048587;28;20396;-75
2023/04/08 01:44:19;;;;;;;31.23;13.57;;;;;;;7.69;100.00;102179.56;5048735;28;20033;-75
2023/04/08 01:46:47;;;;;;;33.28;16.40;;;;;;;7.66;100.00;102175.38;5048653;28;20040;-75
2023/04/08 01:49:15;;;;;;;32.65;14.90;;;;;;;7.65;100.00;102183.47;5048884;28;20043;-75
2023/04/08 01:51:40;;;;;;;29.98;15.30;;;;;;;7.63;100.00;102175.69;5048743;28;20029;-75
2023/04/08 01:54:06;;;;;;;33.83;17.00;;;;;;;7.67;100.00;102187.66;5051648;28;20027;-75
2023/04/08 01:56:36;;;;;;;31.67;14.65;;;;;;;7.63;100.00;102182.81;5052615;28;20063;-75
2023/04/08 01:59:06;;;;;;;30.20;15.23;;;;;;;7.66;100.00;102188.66;5052548;28;20021;-75
2023/04/08 02:01:34;;;;;;;37.95;17.13;;;;;;;7.68;100.00;102181.41;5052239;28;20048;-75
2023/04/08 02:04:01;;;;;;;36.72;16.30;;;;;;;7.65;100.00;102179.03;5050937;28;20446;-75
2023/04/08 02:06:28;;;;;;;32.45;15.07;;;;;;;7.70;100.00;102183.88;5052409;28;20035;-75
2023/04/08 02:08:55;;;;;;;34.22;16.15;;;;;;;7.69;100.00;102191.03;5052231;28;20720;-75
2023/04/08 02:11:20;;;;;;;32.53;16.13;;;;;;;7.68;100.00;102194.66;5052421;28;20035;-75
2023/04/08 02:13:46;;;;;;;32.40;15.10;;;;;;;7.66;100.00;102185.19;5052183;28;20032;-75
2023/04/08 02:16:17;;;;;;;34.35;18.35;;;;;;;7.65;100.00;102178.16;5052115;28;20043;-75
2023/04/08 02:18:49;;;;;;;36.07;17.80;;;;;;;7.67;100.00;102187.66;5052097;28;20029;-75
2023/04/08 02:21:17;;;;;;;30.38;14.73;;;;;;;7.68;100.00;102194.66;5051912;28;20039;-75
2023/04/08 02:23:48;;;;;;;31.40;15.73;;;;;;;7.67;100.00;102185.00;5052128;28;20029;-75
2023/04/08 02:26:15;;;;;;;30.20;15.23;;;;;;;7.70;100.00;102189.19;5051954;28;20035;-75
2023/04/08 02:28:41;;;;;;;32.42;14.38;;;;;;;7.68;100.00;102197.31;5051960;28;20032;-75
2023/04/08 02:31:14;;;;;;;32.08;15.55;;;;;;;7.66;100.00;102191.31;5051938;28;20036;-75
2023/04/08 02:33:41;;;;;;;33.65;16.85;;;;;;;7.64;100.00;102192.44;5052044;28;20021;-75
2023/04/08 02:36:07;;;;;;;35.15;18.08;;;;;;;7.61;100.00;102198.03;5051886;28;20025;-75
2023/04/08 02:38:33;;;;;;;35.08;16.77;;;;;;;7.54;100.00;102181.00;5051762;28;20033;-75
2023/04/08 02:40:58;;;;;;;35.20;14.52;;;;;;;7.53;100.00;102187.31;5050566;28;20392;-75
2023/04/08 02:43:33;;;;;;;32.40;13.98;;;;;;;7.49;100.00;102186.75;5051591;28;20083;-75
2023/04/08 02:46:02;;;;;;;29.88;15.52;;;;;;;7.44;100.00;102183.69;5051688;28;20041;-75
2023/04/08 02:48:28;;;;;;;30.38;15.48;;;;;;;7.38;100.00;102200.19;5051621;28;20035;-75
2023/04/08 02:50:53;;;;;;;31.33;14.73;;;;;;;7.29;100.00;102193.09;5051738;28;20427;-75
2023/04/08 02:53:18;;;;;;;30.75;16.38;;;;;;;7.26;100.00;102202.16;5051399;28;20029;-75
2023/04/08 02:55:44;;;;;;;32.22;15.48;;;;;;;7.24;100.00;102190.84;5051521;28;20040;-75
2023/04/08 02:58:09;;;;;;;27.42;14.63;;;;;;;7.21;100.00;102199.94;5050036;28;20067;-75
2023/04/08 03:00:36;;;;;;;28.25;13.52;;;;;;;7.15;100.00;102194.34;5051189;28;20052;-75
2023/04/08 03:03:01;;;;;;;30.48;12.98;;;;;;;7.05;100.00;102197.03;5049782;28;20075;-75
2023/04/08 03:05:26;;;;;;;31.52;13.13;;;;;;;7.03;100.00;102199.81;5050570;28;20423;-75
2023/04/08 03:07:52;;;;;;;27.98;12.68;;;;;;;7.01;100.00;102200.91;5049827;28;20072;-75
2023/04/08 03:10:17;;;;;;;34.20;14.32;;;;;;;6.99;100.00;102202.88;5049880;28;20132;-75
2023/04/08 03:12:42;;;;;;;32.70;14.00;;;;;;;6.95;100.00;102196.19;5051073;28;20055;-75
2023/04/08 03:15:08;;;;;;;27.23;12.00;;;;;;;6.91;100.00;102194.78;5051012;28;20029;-75
2023/04/08 03:17:33;;;;;;;29.20;14.45;;;;;;;6.81;100.00;102181.50;5051155;28;20048;-76
2023/04/08 03:20:00;;;;;;;29.08;13.80;;;;;;;6.87;100.00;102193.38;5049730;28;20492;-76
2023/04/08 03:22:25;;;;;;;25.58;12.35;;;;;;;6.86;100.00;102200.50;5051262;28;20029;-75
2023/04/08 03:24:51;;;;;;;29.77;12.52;;;;;;;6.83;100.00;102200.78;5050845;28;20056;-75
2023/04/08 03:27:16;;;;;;;29.90;15.20;;;;;;;6.79;100.00;102199.38;5050981;28;20086;-75
2023/04/08 03:29:42;;;;;;;32.03;15.13;;;;;;;6.78;100.00;102203.00;5051116;28;20037;-75
2023/04/08 03:32:07;;;;;;;27.80;13.18;;;;;;;6.72;100.00;102193.78;5050835;28;20033;-75
2023/04/08 03:34:33;;;;;;;27.83;12.57;;;;;;;6.71;100.00;102193.94;5050834;28;20035;-75
2023/04/08 03:36:59;;;;;;;23.80;11.40;;;;;;;6.63;100.00;102201.72;5050725;28;20047;-75
2023/04/08 03:39:24;;;;;;;32.60;15.10;;;;;;;6.58;100.00;102207.44;5050708;28;20032;-75
2023/04/08 03:41:50;;;;;;;42.63;16.33;;;;;;;6.50;100.00;102204.66;5050600;28;20035;-75
2023/04/08 03:44:15;;;;;;;27.67;12.43;;;;;;;6.47;100.00;102207.56;5050567;28;20021;-75
2023/04/08 03:46:40;;;;;;;26.55;13.73;;;;;;;6.42;100.00;102200.03;5050337;28;20449;-75
2023/04/08 03:49:06;;;;;;;29.98;14.25;;;;;;;6.38;100.00;102208.38;5050556;28;20563;-75
2023/04/08 03:51:31;;;;;;;30.40;14.63;;;;;;;6.37;100.00;102215.50;5050355;28;20056;-75
2023/04/08 03:53:57;;;;;;;33.83;15.80;;;;;;;6.34;100.00;102207.78;5050370;28;20665;-75
2023/04/08 03:56:22;;;;;;;31.00;15.50;;;;;;;6.38;100.00;102216.34;5048906;28;20116;-75
2023/04/08 03:58:47;;;;;;;33.15;14.75;;;;;;;6.36;100.00;102219.09;5050027;28;20439;-75
2023/04/08 04:01:13;;;;;;;29.05;13.13;;;;;;;6.35;100.00;102217.44;5048837;28;20068;-75
2023/04/08 04:03:38;;;;;;;26.98;12.55;;;;;;;6.31;100.00;102216.00;5048860;28;20021;-75
2023/04/08 04:06:04;;;;;;;27.13;14.45;;;;;;;6.29;100.00;102215.34;5050218;28;20412;-75
2023/04/08 04:08:29;;;;;;;30.65;14.38;;;;;;;6.29;100.00;102215.34;5049947;28;20024;-75
2023/04/08 04:10:54;;;;;;;29.08;12.88;;;;;;;6.24;100.00;102210.44;5050126;28;20032;-75
2023/04/08 04:13:20;;;;;;;26.00;11.80;;;;;;;6.24;100.00;102221.03;5032115;28;20039;-75
2023/04/08 04:15:46;;;;;;;25.23;10.60;;;;;;;6.28;100.00;102229.53;5049650;28;20543;-75
2023/04/08 04:18:11;;;;;;;23.98;12.60;;;;;;;6.28;100.00;102219.78;5049537;28;20127;-75
2023/04/08 04:20:43;;;;;;;30.25;14.40;;;;;;;6.31;100.00;102229.25;5048457;28;20113;-75
2023/04/08 04:23:08;;;;;;;;;;;;;;;6.39;100.00;102231.25;5050908;28;20119;-75
2023/04/08 04:25:34;;;;;;;27.38;11.13;;;;;;;6.41;100.00;102234.59;5048416;28;20332;-75
2023/04/08 04:28:00;;;;;;;27.08;12.13;;;;;;;6.44;100.00;102232.50;5050022;28;20025;-75
2023/04/08 04:30:26;;;;;;;36.97;17.40;;;;;;;6.48;100.00;102239.22;5049530;28;20032;-75
2023/04/08 04:32:52;;;;;;;34.45;17.25;;;;;;;6.50;100.00;102245.25;5049797;28;20025;-75
2023/04/08 04:35:17;;;;;;;33.30;14.77;;;;;;;6.57;100.00;102253.47;5049388;28;20361;-75
2023/04/08 04:37:42;;;;;;;28.73;13.50;;;;;;;6.62;100.00;102250.41;5049659;28;20530;-75
2023/04/08 04:40:08;;;;;;;32.67;13.82;;;;;;;6.66;100.00;102251.84;5049413;28;20032;-75
2023/04/08 04:42:33;;;;;;;32.30;14.07;;;;;;;6.65;100.00;102247.50;5049403;28;20067;-75
2023/04/08 04:44:59;;;;;;;33.17;14.75;;;;;;;6.70;100.00;102262.00;5048011;28;20056;-76
2023/04/08 04:47:24;;;;;;;31.75;15.95;;;;;;;6.71;100.00;102260.22;5049866;28;20369;-76
2023/04/08 04:49:50;;;;;;;34.95;16.08;;;;;;;6.74;100.00;102255.47;5047926;28;20396;-76
2023/04/08 04:52:16;;;;;;;36.47;16.40;;;;;;;6.77;100.00;102264.97;5048001;28;20380;-76
2023/04/08 04:54:42;;;;;;;29.88;12.50;;;;;;;6.79;100.00;102268.31;5049399;28;20464;-76
2023/04/08 04:57:07;;;;;;;36.67;14.73;;;;;;;6.74;100.00;102258.13;5049090;28;20039;-76
2023/04/08 04:59:33;;;;;;;29.25;14.85;;;;;;;6.80;100.00;102270.81;5049350;28;20032;-76
2023/04/08 05:01:58;;;;;;;33.72;16.85;;;;;;;6.81;100.00;102269.00;5049201;28;20064;-76
2023/04/08 05:04:24;;;;;;;28.88;13.93;;;;;;;6.80;100.00;102262.88;5049631;28;20098;-76
2023/04/08 05:06:50;;;;;;;30.73;16.70;;;;;;;6.83;100.00;102266.22;5049124;28;20029;-76
2023/04/08 05:09:15;;;;;;;33.75;14.90;;;;;;;6.87;100.00;102272.94;5049300;28;20383;-76
2023/04/08 05:11:40;;;;;;;32.80;14.90;;;;;;;6.90;100.00;102280.63;5047689;28;20064;-76
2023/04/08 05:14:06;;;;;;;32.80;14.88;;;;;;;6.90;100.00;102285.94;5047979;28;20476;-76
2023/04/08 05:16:32;;;;;;;33.33;17.05;;;;;;;6.90;100.00;102277.97;5049112;28;20055;-76
2023/04/08 05:18:57;;;;;;;32.80;16.58;;;;;;;6.97;100.00;102287.91;5049395;28;21260;-76
2023/04/08 05:21:23;;;;;;;31.52;15.77;;;;;;;6.93;100.00;102283.00;5049003;28;20143;-76
2023/04/08 05:23:51;;;;;;;41.40;18.80;;;;;;;7.00;100.00;102292.94;5048938;28;20029;-76
2023/04/08 05:26:23;;;;;;;32.17;16.08;;;;;;;7.03;100.00;102292.63;5047896;28;20492;-76
2023/04/08 05:28:50;;;;;;;35.45;16.92;;;;;;;7.02;100.00;102290.97;5052023;28;20392;-76
2023/04/08 05:31:16;;;;;;;34.65;16.73;;;;;;;7.07;100.00;102289.72;5051878;28;20031;-76
2023/04/08 05:33:41;;;;;;;33.45;15.85;;;;;;;7.09;100.00;102293.06;5053026;28;20033;-76
2023/04/08 05:36:06;;;;;;;31.98;14.95;;;;;;;7.11;100.00;102294.59;5052956;28;20052;-76
2023/04/08 05:38:33;;;;;;;30.65;15.70;;;;;;;7.10;100.00;102292.09;5051651;28;20033;-76
2023/04/08 05:40:58;;;;;;;33.05;14.77;;;;;;;7.11;100.00;102294.59;5051753;28;20047;-76
2023/04/08 05:43:23;;;;;;;33.20;16.23;;;;;;;7.19;100.00;102300.06;5052888;28;20025;-76
2023/04/08 05:45:49;;;;;;;30.10;15.88;;;;;;;7.21;100.00;102302.59;5052805;28;20025;-76
2023/04/08 05:48:14;;;;;;;32.08;16.73;;;;;;;7.23;100.00;102298.81;5052901;28;20399;-76
2023/04/08 05:50:40;;;;;;;31.60;16.10;;;;;;;7.23;100.00;102304.13;5052568;28;20029;-76
2023/04/08 05:53:05;;;;;;;31.30;15.40;;;;;;;7.24;100.00;102299.66;5052986;28;20399;-76
2023/04/08 05:55:31;;;;;;;34.92;19.58;;;;;;;7.24;100.00;102297.81;5052518;28;20055;-76
2023/04/08 05:57:56;;;;;;;34.78;17.35;;;;;;;7.30;100.00;102309.69;5051270;28;20090;-76
2023/04/08 06:00:21;;;;;;;30.55;15.27;;;;;;;7.31;100.00;102314.06;5052512;28;20048;-76
2023/04/08 06:02:47;;;;;;;36.55;16.77;;;;;;;7.29;100.00;102313.34;5052298;28;20055;-76
2023/04/08 06:05:12;;;;;;;38.13;16.40;;;;;;;7.25;100.00;102320.72;5051878;28;20471;-76
2023/04/08 06:07:38;;;;;;;36.90;17.50;;;;;;;7.28;100.00;102327.56;5051125;28;20032;-76
2023/04/08 06:10:04;;;;;;;35.78;15.95;;;;;;;7.30;100.00;102328.28;5051083;28;20039;-76
2023/04/08 06:12:30;;;;;;;33.38;16.40;;;;;;;7.34;100.00;102324.38;5052229;28;20037;-76
2023/04/08 06:14:56;;;;;;;33.72;17.50;;;;;;;7.31;100.00;102322.00;5052140;28;20033;-76
2023/04/08 06:17:22;;;;;;;33.78;15.93;;;;;;;7.36;100.00;102330.41;5052172;28;20044;-76
2023/04/08 06:19:47;;;;;;;36.60;16.73;;;;;;;7.35;100.00;102328.69;5052156;28;20037;-76
2023/04/08 06:22:13;;;;;;;34.63;18.30;;;;;;;7.31;100.00;102324.66;5051973;28;20032;-76
2023/04/08 06:24:38;;;;;;;34.20;17.65;;;;;;;7.32;100.00;102334.28;5033882;28;20033;-76
2023/04/08 06:27:04;;;;;;;31.77;16.15;;;;;;;7.35;100.00;102330.53;5051917;28;20036;-76
2023/04/08 06:29:30;;;;;;;33.05;16.60;;;;;;;7.34;100.00;102334.16;5052246;28;20488;-76
2023/04/08 06:31:55;;;;;;;34.60;17.20;;;;;;;7.37;100.00;102333.88;5050662;28;20024;-76
2023/04/08 06:34:21;;;;;;;30.00;15.75;;;;;;;7.37;100.00;102333.88;5051898;28;20392;-76
2023/04/08 06:36:47;;;;;;;32.65;16.15;;;;;;;7.42;100.00;102343.09;5051687;28;20048;-76
2023/04/08 06:39:13;;;;;;;34.33;14.95;;;;;;;7.44;100.00;102342.94;5050974;28;20595;-75
2023/04/08 06:41:39;;;;;;;31.52;13.45;;;;;;;7.52;100.00;102352.88;5050493;28;20029;-75
2023/04/08 06:44:04;;;;;;;29.15;15.98;;;;;;;7.55;100.00;102347.31;5051882;28;20427;-75
2023/04/08 06:46:30;;;;;;;30.30;14.85;;;;;;;7.59;100.00;102348.69;5050174;28;20122;-76
2023/04/08 06:48:55;;;;;;;35.88;18.58;;;;;;;7.60;100.00;102359.19;5051721;28;20044;-76
2023/04/08 06:51:20;;;;;;;34.08;16.25;;;;;;;7.66;100.00;102363.09;5051610;28;20053;-76
2023/04/08 06:53:46;;;;;;;33.17;15.75;;;;;;;7.69;100.00;102354.84;5051470;28;20388;-76
2023/04/08 06:56:11;;;;;;;33.38;17.38;;;;;;;7.72;100.00;102356.38;5051779;28;20036;-76
2023/04/08 06:58:37;;;;;;;31.95;15.07;;;;;;;7.68;100.00;102356.66;5051280;28;20029;-73
2023/04/08 07:01:03;;;;;;;31.65;16.17;;;;;;;7.72;100.00;102372.31;5049912;28;20033;-73
2023/04/08 07:03:28;;;;;;;29.98;16.02;;;;;;;7.68;100.00;102366.44;5050217;28;20078;-73
2023/04/08 07:05:53;;;;;;;32.92;16.38;;;;;;;7.67;100.00;102380.69;5050082;28;20033;-73
2023/04/08 07:08:19;;;;;;;32.95;16.17;;;;;;;7.65;100.00;102387.94;5049790;28;20065;-73
2023/04/08 07:10:44;;;;;;;31.20;15.38;;;;;;;7.67;100.00;102380.69;5051333;28;20102;-73
2023/04/08 07:13:10;;;;;;;31.25;17.08;;;;;;;7.69;100.00;102389.34;5051262;28;20029;-73
2023/04/08 07:15:36;;;;;;;29.80;15.35;;;;;;;7.67;100.00;102389.47;5050894;28;20025;-73
2023/04/08 07:18:01;;;;;;;41.63;17.20;;;;;;;7.72;100.00;102385.59;5051111;28;20036;-73
2023/04/08 07:20:27;;;;;;;32.78;17.00;;;;;;;7.71;100.00;102390.06;5051195;28;20032;-73
2023/04/08 07:22:52;;;;;;;32.63;16.10;;;;;;;7.71;100.00;102395.38;5051083;28;20440;-73
2023/04/08 07:25:18;;;;;;;32.35;14.57;;;;;;;7.72;100.00;102399.69;5051156;28;20488;-72
2023/04/08 07:27:43;;;;;;;36.30;16.77;;;;;;;7.69;100.00;102407.94;5049770;28;20182;-72
2023/04/08 07:30:09;;;;;;;36.42;16.33;;;;;;;7.66;100.00;102413.53;5051025;28;20657;-72
2023/04/08 07:32:35;;;;;;;35.50;18.00;;;;;;;7.52;100.00;102405.97;5050629;28;20045;-72
2023/04/08 07:35:01;;;;;;;32.55;15.18;;;;;;;7.50;100.00;102399.97;5049430;28;20418;-73
2023/04/08 07:37:27;;;;;;;32.08;14.70;;;;;;;7.49;100.00;102399.13;5049484;28;20115;-73
2023/04/08 07:39:52;;;;;;;33.42;16.45;;;;;;;7.59;100.00;102415.06;5050835;28;20028;-73
2023/04/08 07:42:17;;;;;;;31.95;16.88;;;;;;;7.57;100.00;102415.22;5050701;28;20037;-73
2023/04/08 07:44:44;;;;;;;32.08;16.00;;;;;;;7.56;100.00;102418.00;5050553;28;20068;-73
2023/04/08 07:47:10;;;;;;;33.35;17.83;;;;;;;7.62;100.00;102417.44;5050630;28;20041;-73
2023/04/08 07:49:36;;;;;;;37.28;18.58;;;;;;;7.68;100.00;102428.34;5049478;28;20036;-73
2023/04/08 07:52:01;;;;;;;29.42;14.68;;;;;;;7.68;100.00;102424.88;5050346;28;20392;-73
2023/04/08 07:54:27;;;;;;;31.55;14.50;;;;;;;7.64;100.00;102421.63;5048933;28;20044;-73
2023/04/08 07:56:52;;;;;;;36.35;15.68;;;;;;;7.63;100.00;102421.78;5050428;28;20025;-73
2023/04/08 07:59:19;;;;;;;31.98;13.40;;;;;;;7.58;100.00;102416.88;5049008;28;20053;-73
2023/04/08 08:01:45;;;;;;;30.83;15.05;;;;;;;7.57;100.00;102417.00;5032155;28;20080;-73
2023/04/08 08:04:11;;;;;;;27.20;13.93;;;;;;;7.58;100.00;102427.50;5050286;28;20106;-73
2023/04/08 08:06:36;;;;;;;29.50;13.68;;;;;;;7.43;100.00;102418.25;5049328;28;20500;-73
2023/04/08 08:09:01;;;;;;;30.80;15.02;;;;;;;7.52;100.00;102429.84;5048843;28;20640;-72
2023/04/08 08:11:27;;;;;;;27.90;14.93;;;;;;;7.56;100.00;102428.63;5048864;28;20033;-73
2023/04/08 08:13:52;;;;;;;28.10;13.40;;;;;;;7.56;100.00;102423.31;5048580;28;20183;-73
2023/04/08 08:16:18;;;;;;;27.48;13.20;;;;;;;7.62;100.00;102436.88;5049937;28;20373;-73
2023/04/08 08:18:43;;;;;;;28.33;13.27;;;;;;;7.63;100.00;102440.38;5034955;28;20043;-73
2023/04/08 08:21:09;;;;;;;25.33;12.93;;;;;;;7.62;100.00;102433.38;5035487;28;20021;-74
2023/04/08 08:23:36;;;;;;;29.63;14.05;;;;;;;7.67;100.00;102445.25;5034425;28;20491;-73
2023/04/08 08:26:05;;;;;;;26.50;14.07;;;;;;;7.62;100.00;102439.53;5035730;28;20021;-74
2023/04/08 08:28:31;;;;;;;26.10;13.95;;;;;;;7.72;100.00;102454.63;5034072;28;20079;-74
2023/04/08 08:30:57;;;;;;;30.38;16.20;;;;;;;7.75;100.00;102447.22;5034498;28;20036;-75
2023/04/08 08:33:23;;;;;;;26.13;14.35;;;;;;;7.86;100.00;102454.25;5034869;28;20020;-74
2023/04/08 08:35:48;;;;;;;28.98;15.20;;;;;;;7.85;100.00;102453.38;5035391;28;20476;-75
2023/04/08 08:38:16;;;;;;;27.20;11.57;;;;;;;7.84;100.00;102459.69;5034173;28;20037;-74
2023/04/08 08:40:42;;;;;;;24.88;13.93;;;;;;;7.84;100.00;102469.47;5032023;28;20033;-74
2023/04/08 08:43:08;;;;;;;25.23;13.65;;;;;;;7.71;100.00;102464.41;5035754;28;20029;-74
2023/04/08 08:45:38;;;;;;;23.92;11.95;;;;;;;7.63;100.00;102461.63;5016665;28;20435;-74
2023/04/08 08:48:03;;;;;;;27.33;13.70;;;;;;;7.57;100.00;102472.75;5033953;28;20119;-74
2023/04/08 08:50:29;;;;;;;26.25;14.18;;;;;;;7.60;100.00;102477.81;5033649;28;20564;-74
2023/04/08 08:52:54;;;;;;;30.13;14.27;;;;;;;7.64;100.00;102479.22;5035029;28;20036;-74
2023/04/08 08:55:21;;;;;;;25.85;12.73;;;;;;;7.58;100.00;102485.91;5033628;28;20029;-73
2023/04/08 08:57:50;;;;;;;26.23;14.02;;;;;;;7.49;100.00;102484.06;5034927;28;20407;-73
2023/04/08 09:00:15;;;;;;;28.15;14.55;;;;;;;7.54;100.00;102473.88;5034301;28;20021;-73
2023/04/08 09:02:41;;;;;;;27.15;13.55;;;;;;;7.61;100.00;102472.38;5035117;28;20057;-73
2023/04/08 09:05:06;;;;;;;29.83;13.43;;;;;;;7.82;100.00;102482.03;5032680;28;20064;-73
2023/04/08 09:07:35;;;;;;;26.10;14.55;;;;;;;7.92;100.00;102474.09;5033529;28;20063;-74
2023/04/08 09:10:02;;;;;;;26.40;14.63;;;;;;;8.03;100.00;102481.91;5035212;28;20025;-74
2023/04/08 09:12:27;;;;;;;26.45;14.00;;;;;;;8.05;100.00;102482.63;5033436;28;20095;-74
2023/04/08 09:15:07;;;;;;;27.15;13.70;;;;;;;8.28;100.00;102492.00;5031839;28;20029;-74
2023/04/08 09:17:39;;;;;;;25.35;14.63;;;;;;;8.46;100.00;102493.94;5033377;28;20396;-74
2023/04/08 09:20:12;;;;;;;34.70;17.65;;;;;;;8.64;100.00;102499.38;5034528;28;20057;-74
2023/04/08 09:22:52;;;;;;;26.40;14.13;;;;;;;8.65;100.00;102496.59;5033021;28;20036;-74
2023/04/08 09:25:44;;;;;;;24.58;12.52;;;;;;;8.75;100.00;102485.91;5035218;28;20116;-74
2023/04/08 09:28:20;;;;;;;26.73;14.48;;;;;;;8.74;100.00;102468.28;5034469;28;20045;-74
2023/04/08 09:30:45;;;;;;;25.60;14.65;;;;;;;9.00;100.00;102503.88;5034834;28;20021;-74
2023/04/08 09:33:11;;;;;;;24.70;13.00;;;;;;;9.05;100.00;102500.81;5034485;28;20102;-74
2023/04/08 09:35:36;;;;;;;24.02;13.70;;;;;;;8.99;100.00;102499.56;5035385;28;21001;-74
2023/04/08 09:38:02;;;;;;;28.35;16.33;;;;;;;8.85;100.00;102477.91;5034019;28;20098;-74
2023/04/08 09:40:32;;;;;;;24.17;14.70;;;;;;;9.11;100.00;102508.19;5034962;28;20029;-74
2023/04/08 09:43:05;;;;;;;25.40;14.45;;;;;;;9.20;100.00;102515.31;5035200;28;20029;-74
2023/04/08 09:45:33;;;;;;;24.83;13.90;;;;;;;9.12;100.00;102520.53;5034018;28;20082;-74
2023/04/08 09:48:23;;;;;;;23.45;12.98;;;;;;;9.13;100.00;102524.03;5034572;28;20020;-74
2023/04/08 09:50:50;;;;;;;29.02;16.83;;;;;;;9.06;100.00;102520.25;5033823;28;20029;-74
2023/04/08 09:53:25;;;;;;;24.33;14.75;;;;;;;9.15;100.00;102511.41;5035263;28;20148;-74
2023/04/08 09:55:54;;;;;;;27.05;14.15;;;;;;;9.18;100.00;102519.94;5035248;28;20021;-74
2023/04/08 09:58:57;;;;;;;27.75;16.33;;;;;;;9.17;100.00;102493.50;5033454;28;20029;-74
2023/04/08 10:01:36;;;;;;;24.67;15.02;;;;;;;9.38;100.00;102507.38;5033778;28;20068;-74
2023/04/08 10:04:06;;;;;;;25.42;14.55;;;;;;;9.69;100.00;102515.03;5033815;28;20064;-74
2023/04/08 10:06:32;;;;;;;26.08;14.32;;;;;;;9.83;100.00;102521.72;5034507;28;20032;-74
2023/04/08 10:08:59;;;;;;;28.50;17.75;;;;;;;9.90;100.00;102521.94;5034103;28;20064;-74
2023/04/08 10:11:25;;;;;;;26.95;15.07;;;;;;;9.90;100.00;102513.94;5034490;28;20071;-74
2023/04/08 10:13:51;;;;;;;26.02;15.27;;;;;;;9.99;100.00;102511.22;5035410;28;20041;-74
2023/04/08 10:16:26;;;;;;;25.30;15.40;;;;;;;10.13;100.00;102507.16;5037547;28;20029;-74
2023/04/08 10:18:54;;;;;;;25.85;15.70;;;;;;;10.31;100.00;102512.53;5038299;28;20037;-74
2023/04/08 10:21:33;;;;;;;26.25;15.13;;;;;;;10.44;100.00;102499.63;5037671;28;20387;-74
2023/04/08 10:24:00;;;;;;;26.42;14.27;;;;;;;10.57;100.00;102506.41;5037028;28;20799;-75
2023/04/08 10:26:38;;;;;;;25.65;14.55;;;;;;;10.55;100.00;102503.03;5036482;28;20049;-75
2023/04/08 10:29:20;;;;;;;24.45;14.02;;;;;;;10.64;100.00;102508.28;5036165;28;20108;-75
2023/04/08 10:31:47;;;;;;;21.42;13.10;;;;;;;10.50;100.00;102507.00;5035742;28;20017;-76
2023/04/08 10:34:25;;;;;;;25.42;15.25;;;;;;;10.83;100.00;102496.56;5036152;28;20037;-74
2023/04/08 10:36:52;;;;;;;26.65;15.50;;;;;;;11.02;100.00;102486.66;5036539;28;20031;-74
2023/04/08 10:39:17;;;;;;;26.48;16.27;;;;;;;11.21;100.00;102488.22;5037534;28;20028;-73
2023/04/08 10:41:46;;;;;;;25.90;16.38;;;;;;;11.23;100.00;102480.91;5037257;28;20029;-73
2023/04/08 10:44:20;;;;;;;29.98;17.40;;;;;;;11.19;100.00;102499.09;5036997;28;20040;-72
2023/04/08 10:46:46;;;;;;;29.90;16.73;;;;;;;11.16;100.00;102486.91;5037318;28;20551;-73
2023/04/08 10:49:12;;;;;;;28.60;16.33;;;;;;;11.13;100.00;102489.91;5035246;28;20041;-73
2023/04/08 10:51:38;;;;;;;28.80;16.65;;;;;;;11.28;100.00;102483.94;5038107;28;20052;-72
2023/04/08 10:54:07;;;;;;;24.38;14.40;;;;;;;11.29;100.00;102485.59;5037541;28;20045;-74
2023/04/08 10:56:35;;;;;;;24.77;15.52;;;;;;;11.20;99.13;102482.06;5037162;28;20049;-75
2023/04/08 10:59:00;;;;;;;26.40;16.83;;;;;;;11.17;98.12;102487.72;5036288;28;20027;-73
2023/04/08 11:01:26;;;;;;;25.65;15.60;;;;;;;11.10;99.79;102492.03;5037351;28;20021;-74
2023/04/08 11:03:52;;;;;;;25.98;14.75;;;;;;;11.22;100.00;102490.75;5037308;28;20437;-73
2023/04/08 11:06:18;;;;;;;24.23;16.70;;;;;;;11.19;100.00;102493.75;5037512;28;20022;-73
2023/04/08 11:08:44;;;;;;;24.65;15.15;;;;;;;11.14;99.10;102496.91;5036974;28;20500;-74